sensor_id;sensor_type;location;lat;lon;timestamp;P1;P2;P0
70255;PMS5003;57669;52.624;-1.688;2023-03-01T00:00:00;11;11;
70255;PMS5003;57669;52.624;-1.688;2023-03-01T00:02:26;18;18;
70255;PMS5003;57669;52.624;-1.688;2023-03-01T00:04:51;19;18;
70255;PMS5003;57669;52.624;-1.688;2023-03-01T00:07:17;14;14;
70255;PMS5003;57669;52.624;-1.688;2023-03-01T00:09:42;15;14;
70255;PMS5003;57669;52.624;-1.688;2023-03-01T00:12:08;12;12;
70255;PMS5003;57669;52.624;-1.688;2023-03-01T00:14:33;18;18;
70255;PMS5003;57669;52.624;-1.688;2023-03-01T00:16:58;10;10;
70255;PMS5003;57669;52.624;-1.688;2023-03-01T00:19:24;13;13;
70255;PMS5003;57669;52.624;-1.688;2023-03-01T00:21:49;12;11;
70255;PMS5003;57669;52.624;-1.688;2023-03-01T00:24:15;8;8;
70255;PMS5003;57669;52.624;-1.688;2023-03-01T00:26:40;12;11;
70255;PMS5003;57669;52.624;-1.688;2023-03-01T00:29:05;11;11;
70255;PMS5003;57669;52.624;-1.688;2023-03-01T00:31:31;16;14;
70255;PMS5003;57669;52.624;-1.688;2023-03-01T00:33:56;12;11;
70255;PMS5003;57669;52.624;-1.688;2023-03-01T00:36:21;11;10;
70255;PMS5003;57669;52.624;-1.688;2023-03-01T00:38:47;10;9;
70255;PMS5003;57669;52.624;-1.688;2023-03-01T00:41:15;7;7;
70255;PMS5003;57669;52.624;-1.688;2023-03-01T00:43:38;8;8;
70255;PMS5003;57669;52.624;-1.688;2023-03-01T00:46:03;10;9;
70255;PMS5003;57669;52.624;-1.688;2023-03-01T00:48:28;12;11;
70255;PMS5003;57669;52.624;-1.688;2023-03-01T00:53:19;8;7;
70255;PMS5003;57669;52.624;-1.688;2023-03-01T00:55:45;9;9;
70255;PMS5003;57669;52.624;-1.688;2023-03-01T00:58:09;12;10;
70255;PMS5003;57669;52.624;-1.688;2023-03-01T01:00:34;10;9;
70255;PMS5003;57669;52.624;-1.688;2023-03-01T01:03:00;7;7;
70255;PMS5003;57669;52.624;-1.688;2023-03-01T01:05:25;8;8;
70255;PMS5003;57669;52.624;-1.688;2023-03-01T01:10:15;7;6;
70255;PMS5003;57669;52.624;-1.688;2023-03-01T01:12:40;10;9;
70255;PMS5003;57669;52.624;-1.688;2023-03-01T01:15:06;10;9;
70255;PMS5003;57669;52.624;-1.688;2023-03-01T01:17:30;8;8;
70255;PMS5003;57669;52.624;-1.688;2023-03-01T01:19:56;11;10;
70255;PMS5003;57669;52.624;-1.688;2023-03-01T01:22:22;8;7;
70255;PMS5003;57669;52.624;-1.688;2023-03-01T01:24:47;10;9;
70255;PMS5003;57669;52.624;-1.688;2023-03-01T01:27:12;8;7;
70255;PMS5003;57669;52.624;-1.688;2023-03-01T01:29:38;8;8;
70255;PMS5003;57669;52.624;-1.688;2023-03-01T01:32:03;9;9;
70255;PMS5003;57669;52.624;-1.688;2023-03-01T01:34:28;11;10;
70255;PMS5003;57669;52.624;-1.688;2023-03-01T01:36:54;12;11;
70255;PMS5003;57669;52.624;-1.688;2023-03-01T01:39:19;13;12;
70255;PMS5003;57669;52.624;-1.688;2023-03-01T01:41:44;14;13;
70255;PMS5003;57669;52.624;-1.688;2023-03-01T01:44:11;14;14;
70255;PMS5003;57669;52.624;-1.688;2023-03-01T01:46:35;15;14;
70255;PMS5003;57669;52.624;-1.688;2023-03-01T01:49:00;13;13;
70255;PMS5003;57669;52.624;-1.688;2023-03-01T01:51:25;16;15;
70255;PMS5003;57669;52.624;-1.688;2023-03-01T01:53:52;16;16;
70255;PMS5003;57669;52.624;-1.688;2023-03-01T01:56:16;18;18;
70255;PMS5003;57669;52.624;-1.688;2023-03-01T01:58:41;14;12;
70255;PMS5003;57669;52.624;-1.688;2023-03-01T02:01:06;11;11;
70255;PMS5003;57669;52.624;-1.688;2023-03-01T02:03:32;8;8;
70255;PMS5003;57669;52.624;-1.688;2023-03-01T02:05:58;7;7;
70255;PMS5003;57669;52.624;-1.688;2023-03-01T02:08:23;8;6;
70255;PMS5003;57669;52.624;-1.688;2023-03-01T02:10:48;7;7;
70255;PMS5003;57669;52.624;-1.688;2023-03-01T02:13:12;7;6;
70255;PMS5003;57669;52.624;-1.688;2023-03-01T02:15:38;6;6;
70255;PMS5003;57669;52.624;-1.688;2023-03-01T02:18:02;4;4;
70255;PMS5003;57669;52.624;-1.688;2023-03-01T02:20:30;7;7;
70255;PMS5003;57669;52.624;-1.688;2023-03-01T02:22:52;6;6;
70255;PMS5003;57669;52.624;-1.688;2023-03-01T02:25:25;5;4;
70255;PMS5003;57669;52.624;-1.688;2023-03-01T02:27:45;6;6;
70255;PMS5003;57669;52.624;-1.688;2023-03-01T02:30:09;6;5;
70255;PMS5003;57669;52.624;-1.688;2023-03-01T02:32:33;7;7;
70255;PMS5003;57669;52.624;-1.688;2023-03-01T02:34:58;6;5;
70255;PMS5003;57669;52.624;-1.688;2023-03-01T02:37:23;8;8;
70255;PMS5003;57669;52.624;-1.688;2023-03-01T02:39:48;5;5;
70255;PMS5003;57669;52.624;-1.688;2023-03-01T02:42:14;5;5;
70255;PMS5003;57669;52.624;-1.688;2023-03-01T02:44:38;8;8;
70255;PMS5003;57669;52.624;-1.688;2023-03-01T02:47:04;10;9;
70255;PMS5003;57669;52.624;-1.688;2023-03-01T02:49:29;8;8;
70255;PMS5003;57669;52.624;-1.688;2023-03-01T02:54:21;8;8;
70255;PMS5003;57669;52.624;-1.688;2023-03-01T02:56:45;14;14;
70255;PMS5003;57669;52.624;-1.688;2023-03-01T02:59:10;10;10;
70255;PMS5003;57669;52.624;-1.688;2023-03-01T03:01:35;8;8;
70255;PMS5003;57669;52.624;-1.688;2023-03-01T03:04:00;12;11;
70255;PMS5003;57669;52.624;-1.688;2023-03-01T03:06:25;10;10;
70255;PMS5003;57669;52.624;-1.688;2023-03-01T03:08:50;13;12;
70255;PMS5003;57669;52.624;-1.688;2023-03-01T03:11:16;14;12;
70255;PMS5003;57669;52.624;-1.688;2023-03-01T03:13:40;11;11;
70255;PMS5003;57669;52.624;-1.688;2023-03-01T03:16:06;13;12;
70255;PMS5003;57669;52.624;-1.688;2023-03-01T03:18:31;14;12;
70255;PMS5003;57669;52.624;-1.688;2023-03-01T03:20:57;12;10;
70255;PMS5003;57669;52.624;-1.688;2023-03-01T03:23:22;15;13;
70255;PMS5003;57669;52.624;-1.688;2023-03-01T03:25:48;9;8;
70255;PMS5003;57669;52.624;-1.688;2023-03-01T03:28:13;15;14;
70255;PMS5003;57669;52.624;-1.688;2023-03-01T03:30:39;7;7;
70255;PMS5003;57669;52.624;-1.688;2023-03-01T03:33:03;7;7;
70255;PMS5003;57669;52.624;-1.688;2023-03-01T03:35:29;8;7;
70255;PMS5003;57669;52.624;-1.688;2023-03-01T03:37:54;8;8;
70255;PMS5003;57669;52.624;-1.688;2023-03-01T03:40:19;9;9;
70255;PMS5003;57669;52.624;-1.688;2023-03-01T03:42:44;8;8;
70255;PMS5003;57669;52.624;-1.688;2023-03-01T03:45:09;7;7;
70255;PMS5003;57669;52.624;-1.688;2023-03-01T03:47:34;5;5;
70255;PMS5003;57669;52.624;-1.688;2023-03-01T03:50:00;9;9;
70255;PMS5003;57669;52.624;-1.688;2023-03-01T03:52:24;12;12;
70255;PMS5003;57669;52.624;-1.688;2023-03-01T03:54:50;10;9;
70255;PMS5003;57669;52.624;-1.688;2023-03-01T03:57:15;8;8;
70255;PMS5003;57669;52.624;-1.688;2023-03-01T03:59:40;10;9;
70255;PMS5003;57669;52.624;-1.688;2023-03-01T04:02:05;10;10;
70255;PMS5003;57669;52.624;-1.688;2023-03-01T04:04:31;9;9;
70255;PMS5003;57669;52.624;-1.688;2023-03-01T04:06:56;11;10;
70255;PMS5003;57669;52.624;-1.688;2023-03-01T04:09:21;10;9;
70255;PMS5003;57669;52.624;-1.688;2023-03-01T04:11:47;11;11;
70255;PMS5003;57669;52.624;-1.688;2023-03-01T04:14:12;11;9;
70255;PMS5003;57669;52.624;-1.688;2023-03-01T04:16:37;12;12;
70255;PMS5003;57669;52.624;-1.688;2023-03-01T04:19:02;9;8;
70255;PMS5003;57669;52.624;-1.688;2023-03-01T04:21:27;8;8;
70255;PMS5003;57669;52.624;-1.688;2023-03-01T04:23:52;13;12;
70255;PMS5003;57669;52.624;-1.688;2023-03-01T04:26:17;8;7;
70255;PMS5003;57669;52.624;-1.688;2023-03-01T04:28:43;7;7;
70255;PMS5003;57669;52.624;-1.688;2023-03-01T04:31:10;13;12;
70255;PMS5003;57669;52.624;-1.688;2023-03-01T04:33:34;9;9;
70255;PMS5003;57669;52.624;-1.688;2023-03-01T04:35:59;7;7;
70255;PMS5003;57669;52.624;-1.688;2023-03-01T04:38:24;11;10;
70255;PMS5003;57669;52.624;-1.688;2023-03-01T04:40:49;9;9;
70255;PMS5003;57669;52.624;-1.688;2023-03-01T04:43:14;9;8;
70255;PMS5003;57669;52.624;-1.688;2023-03-01T04:45:40;6;6;
70255;PMS5003;57669;52.624;-1.688;2023-03-01T04:48:05;6;5;
70255;PMS5003;57669;52.624;-1.688;2023-03-01T04:50:30;8;8;
70255;PMS5003;57669;52.624;-1.688;2023-03-01T04:52:55;7;7;
70255;PMS5003;57669;52.624;-1.688;2023-03-01T04:55:20;10;10;
70255;PMS5003;57669;52.624;-1.688;2023-03-01T04:57:46;10;8;
70255;PMS5003;57669;52.624;-1.688;2023-03-01T05:00:11;6;6;
70255;PMS5003;57669;52.624;-1.688;2023-03-01T05:02:36;10;10;
70255;PMS5003;57669;52.624;-1.688;2023-03-01T05:05:01;7;7;
70255;PMS5003;57669;52.624;-1.688;2023-03-01T05:07:26;6;6;
70255;PMS5003;57669;52.624;-1.688;2023-03-01T05:09:52;7;7;
70255;PMS5003;57669;52.624;-1.688;2023-03-01T05:12:17;7;7;
70255;PMS5003;57669;52.624;-1.688;2023-03-01T05:14:42;7;7;
70255;PMS5003;57669;52.624;-1.688;2023-03-01T05:17:07;7;7;
70255;PMS5003;57669;52.624;-1.688;2023-03-01T05:19:32;8;8;
70255;PMS5003;57669;52.624;-1.688;2023-03-01T05:21:57;9;8;
70255;PMS5003;57669;52.624;-1.688;2023-03-01T05:24:23;9;8;
70255;PMS5003;57669;52.624;-1.688;2023-03-01T05:26:48;8;8;
70255;PMS5003;57669;52.624;-1.688;2023-03-01T05:29:13;7;6;
70255;PMS5003;57669;52.624;-1.688;2023-03-01T05:31:38;5;5;
70255;PMS5003;57669;52.624;-1.688;2023-03-01T05:34:03;6;6;
70255;PMS5003;57669;52.624;-1.688;2023-03-01T05:36:28;8;6;
70255;PMS5003;57669;52.624;-1.688;2023-03-01T05:38:53;7;7;
70255;PMS5003;57669;52.624;-1.688;2023-03-01T05:41:18;7;7;
70255;PMS5003;57669;52.624;-1.688;2023-03-01T05:43:44;7;7;
70255;PMS5003;57669;52.624;-1.688;2023-03-01T05:46:09;8;8;
70255;PMS5003;57669;52.624;-1.688;2023-03-01T05:48:34;8;7;
70255;PMS5003;57669;52.624;-1.688;2023-03-01T05:51:00;11;11;
70255;PMS5003;57669;52.624;-1.688;2023-03-01T05:53:24;12;11;
70255;PMS5003;57669;52.624;-1.688;2023-03-01T05:55:49;10;10;
70255;PMS5003;57669;52.624;-1.688;2023-03-01T05:58:15;11;10;
70255;PMS5003;57669;52.624;-1.688;2023-03-01T06:00:40;13;13;
70255;PMS5003;57669;52.624;-1.688;2023-03-01T06:03:05;12;12;
70255;PMS5003;57669;52.624;-1.688;2023-03-01T06:05:30;15;14;
70255;PMS5003;57669;52.624;-1.688;2023-03-01T06:07:58;13;11;
70255;PMS5003;57669;52.624;-1.688;2023-03-01T06:10:21;14;12;
70255;PMS5003;57669;52.624;-1.688;2023-03-01T06:12:47;18;15;
70255;PMS5003;57669;52.624;-1.688;2023-03-01T06:15:13;14;11;
70255;PMS5003;57669;52.624;-1.688;2023-03-01T06:17:40;12;11;
70255;PMS5003;57669;52.624;-1.688;2023-03-01T06:20:03;14;14;
70255;PMS5003;57669;52.624;-1.688;2023-03-01T06:22:28;12;12;
70255;PMS5003;57669;52.624;-1.688;2023-03-01T06:24:54;14;14;
70255;PMS5003;57669;52.624;-1.688;2023-03-01T06:27:19;13;13;
70255;PMS5003;57669;52.624;-1.688;2023-03-01T06:29:45;13;12;
70255;PMS5003;57669;52.624;-1.688;2023-03-01T06:32:10;20;19;
70255;PMS5003;57669;52.624;-1.688;2023-03-01T06:34:35;12;12;
70255;PMS5003;57669;52.624;-1.688;2023-03-01T06:37:00;13;13;
70255;PMS5003;57669;52.624;-1.688;2023-03-01T06:39:27;13;11;
70255;PMS5003;57669;52.624;-1.688;2023-03-01T06:41:51;8;8;
70255;PMS5003;57669;52.624;-1.688;2023-03-01T06:44:16;11;11;
70255;PMS5003;57669;52.624;-1.688;2023-03-01T06:46:42;11;11;
70255;PMS5003;57669;52.624;-1.688;2023-03-01T06:49:07;12;11;
70255;PMS5003;57669;52.624;-1.688;2023-03-01T06:51:33;13;13;
70255;PMS5003;57669;52.624;-1.688;2023-03-01T06:53:59;13;13;
70255;PMS5003;57669;52.624;-1.688;2023-03-01T06:56:24;10;10;
70255;PMS5003;57669;52.624;-1.688;2023-03-01T06:58:50;16;14;
70255;PMS5003;57669;52.624;-1.688;2023-03-01T07:01:15;11;10;
70255;PMS5003;57669;52.624;-1.688;2023-03-01T07:03:40;9;9;
70255;PMS5003;57669;52.624;-1.688;2023-03-01T07:06:06;13;12;
70255;PMS5003;57669;52.624;-1.688;2023-03-01T07:08:31;11;10;
70255;PMS5003;57669;52.624;-1.688;2023-03-01T07:10:56;10;9;
70255;PMS5003;57669;52.624;-1.688;2023-03-01T07:13:22;11;11;
70255;PMS5003;57669;52.624;-1.688;2023-03-01T07:15:47;11;11;
70255;PMS5003;57669;52.624;-1.688;2023-03-01T07:18:13;10;9;
70255;PMS5003;57669;52.624;-1.688;2023-03-01T07:20:38;9;9;
70255;PMS5003;57669;52.624;-1.688;2023-03-01T07:23:05;11;11;
70255;PMS5003;57669;52.624;-1.688;2023-03-01T07:25:29;10;10;
70255;PMS5003;57669;52.624;-1.688;2023-03-01T07:27:54;9;8;
70255;PMS5003;57669;52.624;-1.688;2023-03-01T07:30:19;8;8;
70255;PMS5003;57669;52.624;-1.688;2023-03-01T07:32:44;7;7;
70255;PMS5003;57669;52.624;-1.688;2023-03-01T07:35:09;7;7;
70255;PMS5003;57669;52.624;-1.688;2023-03-01T07:37:35;8;8;
70255;PMS5003;57669;52.624;-1.688;2023-03-01T07:39:59;8;8;
70255;PMS5003;57669;52.624;-1.688;2023-03-01T07:42:25;12;12;
70255;PMS5003;57669;52.624;-1.688;2023-03-01T07:44:51;11;10;
70255;PMS5003;57669;52.624;-1.688;2023-03-01T07:47:16;10;9;
70255;PMS5003;57669;52.624;-1.688;2023-03-01T07:49:42;7;6;
70255;PMS5003;57669;52.624;-1.688;2023-03-01T07:52:09;9;9;
70255;PMS5003;57669;52.624;-1.688;2023-03-01T07:54:32;9;8;
70255;PMS5003;57669;52.624;-1.688;2023-03-01T07:56:57;9;8;
70255;PMS5003;57669;52.624;-1.688;2023-03-01T07:59:23;10;9;
70255;PMS5003;57669;52.624;-1.688;2023-03-01T08:01:48;19;18;
70255;PMS5003;57669;52.624;-1.688;2023-03-01T08:04:14;9;9;
70255;PMS5003;57669;52.624;-1.688;2023-03-01T08:06:39;8;8;
70255;PMS5003;57669;52.624;-1.688;2023-03-01T08:09:05;12;11;
70255;PMS5003;57669;52.624;-1.688;2023-03-01T08:11:30;15;15;
70255;PMS5003;57669;52.624;-1.688;2023-03-01T08:13:56;8;8;
70255;PMS5003;57669;52.624;-1.688;2023-03-01T08:16:21;9;9;
70255;PMS5003;57669;52.624;-1.688;2023-03-01T08:18:46;10;10;
70255;PMS5003;57669;52.624;-1.688;2023-03-01T08:21:12;8;8;
70255;PMS5003;57669;52.624;-1.688;2023-03-01T08:23:37;12;11;
70255;PMS5003;57669;52.624;-1.688;2023-03-01T08:26:03;9;9;
70255;PMS5003;57669;52.624;-1.688;2023-03-01T08:28:27;11;11;
70255;PMS5003;57669;52.624;-1.688;2023-03-01T08:30:53;8;8;
70255;PMS5003;57669;52.624;-1.688;2023-03-01T08:33:18;9;9;
70255;PMS5003;57669;52.624;-1.688;2023-03-01T08:35:43;10;10;
70255;PMS5003;57669;52.624;-1.688;2023-03-01T08:42:58;10;9;
70255;PMS5003;57669;52.624;-1.688;2023-03-01T08:45:24;10;10;
70255;PMS5003;57669;52.624;-1.688;2023-03-01T08:47:51;10;10;
70255;PMS5003;57669;52.624;-1.688;2023-03-01T08:50:14;9;9;
70255;PMS5003;57669;52.624;-1.688;2023-03-01T08:52:39;10;10;
70255;PMS5003;57669;52.624;-1.688;2023-03-01T08:55:04;9;9;
70255;PMS5003;57669;52.624;-1.688;2023-03-01T08:57:29;10;10;
70255;PMS5003;57669;52.624;-1.688;2023-03-01T08:59:55;9;8;
70255;PMS5003;57669;52.624;-1.688;2023-03-01T09:02:20;8;7;
70255;PMS5003;57669;52.624;-1.688;2023-03-01T09:04:46;8;8;
70255;PMS5003;57669;52.624;-1.688;2023-03-01T09:07:11;7;7;
70255;PMS5003;57669;52.624;-1.688;2023-03-01T09:09:37;11;10;
70255;PMS5003;57669;52.624;-1.688;2023-03-01T09:12:02;11;11;
70255;PMS5003;57669;52.624;-1.688;2023-03-01T09:14:27;11;10;
70255;PMS5003;57669;52.624;-1.688;2023-03-01T09:16:52;10;10;
70255;PMS5003;57669;52.624;-1.688;2023-03-01T09:19:18;13;11;
70255;PMS5003;57669;52.624;-1.688;2023-03-01T09:21:43;10;9;
70255;PMS5003;57669;52.624;-1.688;2023-03-01T09:24:11;8;8;
70255;PMS5003;57669;52.624;-1.688;2023-03-01T09:26:33;9;9;
70255;PMS5003;57669;52.624;-1.688;2023-03-01T09:28:58;9;8;
70255;PMS5003;57669;52.624;-1.688;2023-03-01T09:31:23;7;7;
70255;PMS5003;57669;52.624;-1.688;2023-03-01T09:33:49;9;8;
70255;PMS5003;57669;52.624;-1.688;2023-03-01T09:38:39;8;8;
70255;PMS5003;57669;52.624;-1.688;2023-03-01T09:41:08;9;9;
70255;PMS5003;57669;52.624;-1.688;2023-03-01T09:43:30;9;9;
70255;PMS5003;57669;52.624;-1.688;2023-03-01T09:48:21;9;9;
70255;PMS5003;57669;52.624;-1.688;2023-03-01T09:50:46;11;10;
70255;PMS5003;57669;52.624;-1.688;2023-03-01T09:53:13;10;10;
70255;PMS5003;57669;52.624;-1.688;2023-03-01T09:55:38;6;6;
70255;PMS5003;57669;52.624;-1.688;2023-03-01T09:58:05;9;8;
70255;PMS5003;57669;52.624;-1.688;2023-03-01T10:00:30;9;8;
70255;PMS5003;57669;52.624;-1.688;2023-03-01T10:02:55;7;7;
70255;PMS5003;57669;52.624;-1.688;2023-03-01T10:05:22;8;7;
70255;PMS5003;57669;52.624;-1.688;2023-03-01T10:07:45;12;12;
70255;PMS5003;57669;52.624;-1.688;2023-03-01T10:10:14;7;7;
70255;PMS5003;57669;52.624;-1.688;2023-03-01T10:12:35;11;10;
70255;PMS5003;57669;52.624;-1.688;2023-03-01T10:15:01;8;8;
70255;PMS5003;57669;52.624;-1.688;2023-03-01T10:17:26;8;8;
70255;PMS5003;57669;52.624;-1.688;2023-03-01T10:19:50;9;9;
70255;PMS5003;57669;52.624;-1.688;2023-03-01T10:22:21;6;6;
70255;PMS5003;57669;52.624;-1.688;2023-03-01T10:24:41;6;5;
70255;PMS5003;57669;52.624;-1.688;2023-03-01T10:27:07;4;4;
70255;PMS5003;57669;52.624;-1.688;2023-03-01T10:29:34;6;6;
70255;PMS5003;57669;52.624;-1.688;2023-03-01T10:31:57;8;7;
70255;PMS5003;57669;52.624;-1.688;2023-03-01T10:34:27;6;5;
70255;PMS5003;57669;52.624;-1.688;2023-03-01T10:36:50;6;6;
70255;PMS5003;57669;52.624;-1.688;2023-03-01T10:39:15;7;7;
70255;PMS5003;57669;52.624;-1.688;2023-03-01T10:41:44;10;10;
70255;PMS5003;57669;52.624;-1.688;2023-03-01T10:44:09;8;8;
70255;PMS5003;57669;52.624;-1.688;2023-03-01T10:46:31;6;5;
70255;PMS5003;57669;52.624;-1.688;2023-03-01T10:51:22;7;7;
70255;PMS5003;57669;52.624;-1.688;2023-03-01T10:53:48;7;7;
70255;PMS5003;57669;52.624;-1.688;2023-03-01T10:56:13;8;7;
70255;PMS5003;57669;52.624;-1.688;2023-03-01T10:58:38;11;9;
70255;PMS5003;57669;52.624;-1.688;2023-03-01T11:03:29;9;9;
70255;PMS5003;57669;52.624;-1.688;2023-03-01T11:05:55;8;8;
70255;PMS5003;57669;52.624;-1.688;2023-03-01T11:10:46;9;9;
70255;PMS5003;57669;52.624;-1.688;2023-03-01T11:13:13;12;12;
70255;PMS5003;57669;52.624;-1.688;2023-03-01T11:15:36;14;13;
70255;PMS5003;57669;52.624;-1.688;2023-03-01T11:18:02;9;8;
70255;PMS5003;57669;52.624;-1.688;2023-03-01T11:20:29;8;8;
70255;PMS5003;57669;52.624;-1.688;2023-03-01T11:22:53;8;8;
70255;PMS5003;57669;52.624;-1.688;2023-03-01T11:25:18;10;9;
70255;PMS5003;57669;52.624;-1.688;2023-03-01T11:27:44;7;6;
70255;PMS5003;57669;52.624;-1.688;2023-03-01T11:30:13;6;6;
70255;PMS5003;57669;52.624;-1.688;2023-03-01T11:32:35;10;7;
70255;PMS5003;57669;52.624;-1.688;2023-03-01T11:35:00;10;7;
70255;PMS5003;57669;52.624;-1.688;2023-03-01T11:37:28;5;5;
70255;PMS5003;57669;52.624;-1.688;2023-03-01T11:39:52;8;7;
70255;PMS5003;57669;52.624;-1.688;2023-03-01T11:42:17;6;6;
70255;PMS5003;57669;52.624;-1.688;2023-03-01T11:44:41;7;5;
70255;PMS5003;57669;52.624;-1.688;2023-03-01T11:47:09;7;6;
70255;PMS5003;57669;52.624;-1.688;2023-03-01T11:51:59;7;7;
70255;PMS5003;57669;52.624;-1.688;2023-03-01T11:54:27;7;7;
70255;PMS5003;57669;52.624;-1.688;2023-03-01T11:56:49;9;6;
70255;PMS5003;57669;52.624;-1.688;2023-03-01T12:01:43;8;7;
70255;PMS5003;57669;52.624;-1.688;2023-03-01T12:06:34;8;7;
70255;PMS5003;57669;52.624;-1.688;2023-03-01T12:09:00;8;8;
70255;PMS5003;57669;52.624;-1.688;2023-03-01T12:11:23;7;6;
70255;PMS5003;57669;52.624;-1.688;2023-03-01T12:13:56;9;8;
70255;PMS5003;57669;52.624;-1.688;2023-03-01T12:21:06;10;9;
70255;PMS5003;57669;52.624;-1.688;2023-03-01T12:23:35;11;9;
70255;PMS5003;57669;52.624;-1.688;2023-03-01T12:25:57;10;9;
70255;PMS5003;57669;52.624;-1.688;2023-03-01T12:28:30;7;7;
70255;PMS5003;57669;52.624;-1.688;2023-03-01T12:30:53;5;5;
70255;PMS5003;57669;52.624;-1.688;2023-03-01T12:33:17;8;7;
70255;PMS5003;57669;52.624;-1.688;2023-03-01T12:35:44;8;8;
70255;PMS5003;57669;52.624;-1.688;2023-03-01T12:38:07;7;6;
70255;PMS5003;57669;52.624;-1.688;2023-03-01T12:40:33;4;4;
70255;PMS5003;57669;52.624;-1.688;2023-03-01T12:42:58;5;5;
70255;PMS5003;57669;52.624;-1.688;2023-03-01T12:45:29;4;4;
70255;PMS5003;57669;52.624;-1.688;2023-03-01T12:47:52;8;5;
70255;PMS5003;57669;52.624;-1.688;2023-03-01T12:50:12;4;3;
70255;PMS5003;57669;52.624;-1.688;2023-03-01T12:52:38;4;4;
70255;PMS5003;57669;52.624;-1.688;2023-03-01T12:55:03;5;4;
70255;PMS5003;57669;52.624;-1.688;2023-03-01T12:57:29;3;2;
70255;PMS5003;57669;52.624;-1.688;2023-03-01T12:59:58;5;5;
70255;PMS5003;57669;52.624;-1.688;2023-03-01T13:02:22;5;4;
70255;PMS5003;57669;52.624;-1.688;2023-03-01T13:04:50;4;4;
70255;PMS5003;57669;52.624;-1.688;2023-03-01T13:07:13;4;3;
70255;PMS5003;57669;52.624;-1.688;2023-03-01T13:09:37;4;3;
70255;PMS5003;57669;52.624;-1.688;2023-03-01T13:12:01;5;5;
70255;PMS5003;57669;52.624;-1.688;2023-03-01T13:16:52;5;5;
70255;PMS5003;57669;52.624;-1.688;2023-03-01T13:19:17;6;5;
70255;PMS5003;57669;52.624;-1.688;2023-03-01T13:21:43;5;5;
70255;PMS5003;57669;52.624;-1.688;2023-03-01T13:26:38;5;5;
70255;PMS5003;57669;52.624;-1.688;2023-03-01T13:28:59;6;6;
70255;PMS5003;57669;52.624;-1.688;2023-03-01T13:33:51;6;6;
70255;PMS5003;57669;52.624;-1.688;2023-03-01T13:38:45;7;5;
70255;PMS5003;57669;52.624;-1.688;2023-03-01T13:41:08;7;7;
70255;PMS5003;57669;52.624;-1.688;2023-03-01T13:43:33;9;8;
70255;PMS5003;57669;52.624;-1.688;2023-03-01T13:45:59;8;7;
70255;PMS5003;57669;52.624;-1.688;2023-03-01T13:48:24;6;6;
70255;PMS5003;57669;52.624;-1.688;2023-03-01T13:50:50;7;7;
70255;PMS5003;57669;52.624;-1.688;2023-03-01T13:53:16;7;7;
70255;PMS5003;57669;52.624;-1.688;2023-03-01T13:55:41;2;2;
70255;PMS5003;57669;52.624;-1.688;2023-03-01T14:00:32;2;2;
70255;PMS5003;57669;52.624;-1.688;2023-03-01T14:03:00;8;7;
70255;PMS5003;57669;52.624;-1.688;2023-03-01T14:05:21;11;8;
70255;PMS5003;57669;52.624;-1.688;2023-03-01T14:07:50;8;8;
70255;PMS5003;57669;52.624;-1.688;2023-03-01T14:10:12;8;8;
70255;PMS5003;57669;52.624;-1.688;2023-03-01T14:12:39;7;6;
70255;PMS5003;57669;52.624;-1.688;2023-03-01T14:15:04;4;4;
70255;PMS5003;57669;52.624;-1.688;2023-03-01T14:19:55;2;2;
70255;PMS5003;57669;52.624;-1.688;2023-03-01T14:22:22;3;3;
70255;PMS5003;57669;52.624;-1.688;2023-03-01T14:24:47;2;2;
70255;PMS5003;57669;52.624;-1.688;2023-03-01T14:27:11;1;1;
70255;PMS5003;57669;52.624;-1.688;2023-03-01T14:29:37;1;1;
70255;PMS5003;57669;52.624;-1.688;2023-03-01T14:34:27;4;4;
70255;PMS5003;57669;52.624;-1.688;2023-03-01T14:36:53;2;2;
70255;PMS5003;57669;52.624;-1.688;2023-03-01T14:39:19;4;4;
70255;PMS5003;57669;52.624;-1.688;2023-03-01T14:41:43;3;3;
70255;PMS5003;57669;52.624;-1.688;2023-03-01T14:44:12;2;2;
70255;PMS5003;57669;52.624;-1.688;2023-03-01T14:46:36;3;3;
70255;PMS5003;57669;52.624;-1.688;2023-03-01T14:49:02;4;4;
70255;PMS5003;57669;52.624;-1.688;2023-03-01T14:51:27;6;5;
70255;PMS5003;57669;52.624;-1.688;2023-03-01T14:53:53;3;3;
70255;PMS5003;57669;52.624;-1.688;2023-03-01T14:56:18;7;6;
70255;PMS5003;57669;52.624;-1.688;2023-03-01T14:58:45;7;5;
70255;PMS5003;57669;52.624;-1.688;2023-03-01T15:01:10;5;5;
70255;PMS5003;57669;52.624;-1.688;2023-03-01T15:03:36;5;5;
70255;PMS5003;57669;52.624;-1.688;2023-03-01T15:06:01;5;5;
70255;PMS5003;57669;52.624;-1.688;2023-03-01T15:08:25;6;6;
70255;PMS5003;57669;52.624;-1.688;2023-03-01T15:13:21;9;7;
70255;PMS5003;57669;52.624;-1.688;2023-03-01T15:15:43;6;5;
70255;PMS5003;57669;52.624;-1.688;2023-03-01T15:20:34;4;4;
70255;PMS5003;57669;52.624;-1.688;2023-03-01T15:23:00;3;3;
70255;PMS5003;57669;52.624;-1.688;2023-03-01T15:25:26;7;5;
70255;PMS5003;57669;52.624;-1.688;2023-03-01T15:27:51;4;4;
70255;PMS5003;57669;52.624;-1.688;2023-03-01T15:30:17;4;3;
70255;PMS5003;57669;52.624;-1.688;2023-03-01T15:32:41;4;4;
70255;PMS5003;57669;52.624;-1.688;2023-03-01T15:37:36;4;3;
70255;PMS5003;57669;52.624;-1.688;2023-03-01T15:39:58;4;4;
70255;PMS5003;57669;52.624;-1.688;2023-03-01T15:44:49;5;4;
70255;PMS5003;57669;52.624;-1.688;2023-03-01T15:49:40;5;5;
70255;PMS5003;57669;52.624;-1.688;2023-03-01T15:52:05;5;4;
70255;PMS5003;57669;52.624;-1.688;2023-03-01T15:54:31;8;6;
70255;PMS5003;57669;52.624;-1.688;2023-03-01T15:56:55;8;8;
70255;PMS5003;57669;52.624;-1.688;2023-03-01T15:59:21;7;6;
70255;PMS5003;57669;52.624;-1.688;2023-03-01T16:01:46;9;8;
70255;PMS5003;57669;52.624;-1.688;2023-03-01T16:04:12;4;4;
70255;PMS5003;57669;52.624;-1.688;2023-03-01T16:06:38;5;5;
70255;PMS5003;57669;52.624;-1.688;2023-03-01T16:09:03;5;5;
70255;PMS5003;57669;52.624;-1.688;2023-03-01T16:11:29;4;3;
70255;PMS5003;57669;52.624;-1.688;2023-03-01T16:13:55;4;4;
70255;PMS5003;57669;52.624;-1.688;2023-03-01T16:16:20;4;3;
70255;PMS5003;57669;52.624;-1.688;2023-03-01T16:18:46;4;3;
70255;PMS5003;57669;52.624;-1.688;2023-03-01T16:21:12;3;3;
70255;PMS5003;57669;52.624;-1.688;2023-03-01T16:23:36;4;4;
70255;PMS5003;57669;52.624;-1.688;2023-03-01T16:26:01;5;4;
70255;PMS5003;57669;52.624;-1.688;2023-03-01T16:28:27;3;3;
70255;PMS5003;57669;52.624;-1.688;2023-03-01T16:30:52;3;3;
70255;PMS5003;57669;52.624;-1.688;2023-03-01T16:33:18;4;3;
70255;PMS5003;57669;52.624;-1.688;2023-03-01T16:35:43;3;3;
70255;PMS5003;57669;52.624;-1.688;2023-03-01T16:38:09;1;1;
70255;PMS5003;57669;52.624;-1.688;2023-03-01T16:40:34;2;2;
70255;PMS5003;57669;52.624;-1.688;2023-03-01T16:43:00;4;3;
70255;PMS5003;57669;52.624;-1.688;2023-03-01T16:45:25;3;3;
70255;PMS5003;57669;52.624;-1.688;2023-03-01T16:47:50;4;3;
70255;PMS5003;57669;52.624;-1.688;2023-03-01T16:50:16;4;3;
70255;PMS5003;57669;52.624;-1.688;2023-03-01T16:52:41;5;4;
70255;PMS5003;57669;52.624;-1.688;2023-03-01T16:55:07;3;3;
70255;PMS5003;57669;52.624;-1.688;2023-03-01T16:57:33;4;4;
70255;PMS5003;57669;52.624;-1.688;2023-03-01T16:59:57;3;2;
70255;PMS5003;57669;52.624;-1.688;2023-03-01T17:02:23;7;5;
70255;PMS5003;57669;52.624;-1.688;2023-03-01T17:04:51;3;3;
70255;PMS5003;57669;52.624;-1.688;2023-03-01T17:07:14;3;3;
70255;PMS5003;57669;52.624;-1.688;2023-03-01T17:09:39;4;3;
70255;PMS5003;57669;52.624;-1.688;2023-03-01T17:12:05;4;3;
70255;PMS5003;57669;52.624;-1.688;2023-03-01T17:14:30;3;3;